Bullsbrook Pearce Amo, Australia
Current Conditions -  °F | °C
As of 5:00 AM on Tuesday 23 Dec 2014 (Local Time) from YPEA Reporting Station
Clear Clear  
Wind Chill: 63°   Ceiling: Unl
Heat Index: 63°   Visibility: 6mi
Dew Point: 48°   Wind: 23mph
Humidity: 59%   Direction: 90°E
Pressure: 29.97"   Gusts: 35mph
Location:  31.67°S, 116.02°E
Report Text: YPEA 222100Z AUTO 09020G30KT 9999 // NCD 17/09 Q1015
Loading
Personal Weather Stations






























Interactive Weather Map New forecast layout! Learn more

10-Day Weather Forecast

Advertisements
Track Severe Weather on mobile